sensor_id;sensor_type;location;lat;lon;timestamp;pressure;altitude;pressure_sealevel;temperature;humidity
56270;BME280;42176;43.240;27.880;2023-03-31T00:02:04;100295.91;;;2.09;65.85
56270;BME280;42176;43.240;27.880;2023-03-31T00:04:39;100292.25;;;1.97;68.18
56270;BME280;42176;43.240;27.880;2023-03-31T00:07:11;100287.78;;;1.90;68.74
56270;BME280;42176;43.240;27.880;2023-03-31T00:09:37;100277.19;;;1.82;66.11
56270;BME280;42176;43.240;27.880;2023-03-31T00:12:05;100278.22;;;1.92;68.16
56270;BME280;42176;43.240;27.880;2023-03-31T00:14:33;100280.22;;;2.09;68.12
56270;BME280;42176;43.240;27.880;2023-03-31T00:16:59;100271.00;;;2.36;65.39
56270;BME280;42176;43.240;27.880;2023-03-31T00:19:26;100272.47;;;2.17;64.58
56270;BME280;42176;43.240;27.880;2023-03-31T00:21:53;100268.06;;;2.11;65.01
56270;BME280;42176;43.240;27.880;2023-03-31T00:24:18;100251.28;;;1.96;65.95
56270;BME280;42176;43.240;27.880;2023-03-31T00:26:44;100267.03;;;2.03;66.43
56270;BME280;42176;43.240;27.880;2023-03-31T00:29:12;100255.69;;;2.01;66.18
56270;BME280;42176;43.240;27.880;2023-03-31T00:31:37;100260.94;;;2.04;66.41
56270;BME280;42176;43.240;27.880;2023-03-31T00:34:04;100254.88;;;2.03;66.46
56270;BME280;42176;43.240;27.880;2023-03-31T00:36:30;100254.91;;;2.06;66.19
56270;BME280;42176;43.240;27.880;2023-03-31T00:39:00;100247.25;;;2.20;65.31
56270;BME280;42176;43.240;27.880;2023-03-31T00:41:28;100245.63;;;2.28;64.51
56270;BME280;42176;43.240;27.880;2023-03-31T00:47:02;100238.44;;;2.83;60.66
56270;BME280;42176;43.240;27.880;2023-03-31T00:49:44;100232.31;;;2.79;59.77
56270;BME280;42176;43.240;27.880;2023-03-31T00:54:45;100238.09;;;0.86;71.43
56270;BME280;42176;43.240;27.880;2023-03-31T00:57:13;100226.59;;;1.25;69.91
56270;BME280;42176;43.240;27.880;2023-03-31T00:59:45;100219.09;;;2.02;65.58
56270;BME280;42176;43.240;27.880;2023-03-31T01:02:12;100187.94;;;2.19;63.09
56270;BME280;42176;43.240;27.880;2023-03-31T01:04:42;100216.38;;;1.38;66.86
56270;BME280;42176;43.240;27.880;2023-03-31T01:07:34;100210.16;;;2.52;64.34
56270;BME280;42176;43.240;27.880;2023-03-31T01:10:03;100211.78;;;3.23;58.21
56270;BME280;42176;43.240;27.880;2023-03-31T01:12:31;100205.75;;;1.28;68.26
56270;BME280;42176;43.240;27.880;2023-03-31T01:14:58;100196.59;;;1.54;69.26
56270;BME280;42176;43.240;27.880;2023-03-31T01:17:24;100191.19;;;2.00;65.30
56270;BME280;42176;43.240;27.880;2023-03-31T01:20:08;100197.50;;;2.16;64.72
56270;BME280;42176;43.240;27.880;2023-03-31T01:22:45;100198.56;;;1.15;69.36
56270;BME280;42176;43.240;27.880;2023-03-31T01:47:36;100166.69;;;1.93;62.96
56270;BME280;42176;43.240;27.880;2023-03-31T01:50:30;100169.81;;;0.64;68.90
56270;BME280;42176;43.240;27.880;2023-03-31T01:53:04;100167.59;;;0.84;72.13
56270;BME280;42176;43.240;27.880;2023-03-31T01:55:41;100163.66;;;1.10;70.94
56270;BME280;42176;43.240;27.880;2023-03-31T01:58:23;100155.59;;;2.11;65.17
56270;BME280;42176;43.240;27.880;2023-03-31T02:01:04;100158.22;;;2.09;64.22
56270;BME280;42176;43.240;27.880;2023-03-31T02:03:37;100151.03;;;1.94;65.33
56270;BME280;42176;43.240;27.880;2023-03-31T02:06:09;100136.00;;;1.79;65.50
56270;BME280;42176;43.240;27.880;2023-03-31T02:08:40;100136.88;;;1.80;65.34
56270;BME280;42176;43.240;27.880;2023-03-31T02:11:09;100135.13;;;1.80;65.03
56270;BME280;42176;43.240;27.880;2023-03-31T02:13:37;100126.47;;;1.83;66.10
56270;BME280;42176;43.240;27.880;2023-03-31T02:16:08;100131.88;;;1.95;65.87
56270;BME280;42176;43.240;27.880;2023-03-31T02:18:36;100123.59;;;2.31;64.45
56270;BME280;42176;43.240;27.880;2023-03-31T02:21:06;100111.56;;;2.51;61.69
56270;BME280;42176;43.240;27.880;2023-03-31T02:23:35;100110.78;;;1.83;61.09
56270;BME280;42176;43.240;27.880;2023-03-31T02:26:04;100110.34;;;0.44;68.59
56270;BME280;42176;43.240;27.880;2023-03-31T02:28:32;100093.03;;;1.00;68.63
56270;BME280;42176;43.240;27.880;2023-03-31T02:31:11;100104.88;;;1.33;66.79
56270;BME280;42176;43.240;27.880;2023-03-31T02:33:37;100100.19;;;1.71;65.84
56270;BME280;42176;43.240;27.880;2023-03-31T02:36:03;100090.53;;;2.39;59.95
56270;BME280;42176;43.240;27.880;2023-03-31T02:38:33;100090.44;;;2.30;60.05
56270;BME280;42176;43.240;27.880;2023-03-31T02:41:01;100084.16;;;2.15;60.83
56270;BME280;42176;43.240;27.880;2023-03-31T02:43:26;100093.66;;;2.07;63.34
56270;BME280;42176;43.240;27.880;2023-03-31T02:45:52;100089.22;;;2.00;62.78
56270;BME280;42176;43.240;27.880;2023-03-31T02:48:19;100097.06;;;2.03;61.95
56270;BME280;42176;43.240;27.880;2023-03-31T02:53:39;100093.94;;;2.32;63.63
56270;BME280;42176;43.240;27.880;2023-03-31T02:58:44;100086.84;;;2.21;61.70
56270;BME280;42176;43.240;27.880;2023-03-31T03:12:32;100073.28;;;2.59;58.35
56270;BME280;42176;43.240;27.880;2023-03-31T03:15:08;100060.69;;;2.21;61.80
56270;BME280;42176;43.240;27.880;2023-03-31T03:17:40;100066.75;;;2.17;61.38
56270;BME280;42176;43.240;27.880;2023-03-31T03:20:07;100053.66;;;2.14;62.60
56270;BME280;42176;43.240;27.880;2023-03-31T03:22:35;100044.88;;;2.09;64.72
56270;BME280;42176;43.240;27.880;2023-03-31T03:25:02;100051.00;;;2.09;65.62
56270;BME280;42176;43.240;27.880;2023-03-31T03:27:27;100049.31;;;2.18;65.04
56270;BME280;42176;43.240;27.880;2023-03-31T03:29:53;100048.97;;;2.73;60.73
56270;BME280;42176;43.240;27.880;2023-03-31T03:32:18;100044.59;;;2.73;59.85
56270;BME280;42176;43.240;27.880;2023-03-31T03:34:44;100046.19;;;2.54;60.97
56270;BME280;42176;43.240;27.880;2023-03-31T03:37:09;100047.34;;;1.30;68.05
56270;BME280;42176;43.240;27.880;2023-03-31T03:39:35;100042.41;;;1.49;68.74
56270;BME280;42176;43.240;27.880;2023-03-31T03:42:01;100047.06;;;1.73;67.85
56270;BME280;42176;43.240;27.880;2023-03-31T03:44:27;100045.59;;;1.95;65.44
56270;BME280;42176;43.240;27.880;2023-03-31T03:46:52;100047.13;;;2.59;62.20
56270;BME280;42176;43.240;27.880;2023-03-31T03:49:18;100047.13;;;2.59;62.07
56270;BME280;42176;43.240;27.880;2023-03-31T03:51:44;100045.22;;;2.43;62.58
56270;BME280;42176;43.240;27.880;2023-03-31T03:54:11;100043.38;;;2.36;63.60
56270;BME280;42176;43.240;27.880;2023-03-31T03:56:36;100040.78;;;2.36;66.07
56270;BME280;42176;43.240;27.880;2023-03-31T03:59:02;100035.16;;;2.89;61.16
56270;BME280;42176;43.240;27.880;2023-03-31T04:01:27;100031.69;;;2.97;60.57
56270;BME280;42176;43.240;27.880;2023-03-31T04:03:53;100035.13;;;1.94;63.98
56270;BME280;42176;43.240;27.880;2023-03-31T04:06:18;100039.88;;;1.55;67.92
56270;BME280;42176;43.240;27.880;2023-03-31T04:08:43;100034.16;;;1.87;65.38
56270;BME280;42176;43.240;27.880;2023-03-31T04:11:14;100025.63;;;2.01;65.69
56270;BME280;42176;43.240;27.880;2023-03-31T04:13:41;100008.28;;;2.12;64.98
56270;BME280;42176;43.240;27.880;2023-03-31T04:16:08;100019.03;;;2.40;63.85
56270;BME280;42176;43.240;27.880;2023-03-31T04:18:33;100020.97;;;2.64;62.71
56270;BME280;42176;43.240;27.880;2023-03-31T04:21:02;100023.78;;;2.89;63.17
56270;BME280;42176;43.240;27.880;2023-03-31T04:23:34;100024.84;;;3.11;61.41
56270;BME280;42176;43.240;27.880;2023-03-31T04:26:08;100025.88;;;3.40;60.23
56270;BME280;42176;43.240;27.880;2023-03-31T04:28:34;100012.91;;;3.69;58.55
56270;BME280;42176;43.240;27.880;2023-03-31T04:31:01;100001.69;;;4.31;55.60
56270;BME280;42176;43.240;27.880;2023-03-31T04:33:27;99999.09;;;4.69;55.79
56270;BME280;42176;43.240;27.880;2023-03-31T04:35:52;100002.56;;;4.99;55.24
56270;BME280;42176;43.240;27.880;2023-03-31T04:38:20;100006.91;;;5.33;54.29
56270;BME280;42176;43.240;27.880;2023-03-31T04:40:47;99991.97;;;5.47;53.34
56270;BME280;42176;43.240;27.880;2023-03-31T04:43:13;99995.38;;;5.70;53.59
56270;BME280;42176;43.240;27.880;2023-03-31T04:45:39;99991.78;;;5.88;52.30
56270;BME280;42176;43.240;27.880;2023-03-31T04:48:04;99983.00;;;6.00;51.19
56270;BME280;42176;43.240;27.880;2023-03-31T04:50:30;100003.75;;;6.46;51.78
56270;BME280;42176;43.240;27.880;2023-03-31T04:52:56;100000.00;;;6.78;52.27
56270;BME280;42176;43.240;27.880;2023-03-31T04:55:22;99996.81;;;8.07;48.91
56270;BME280;42176;43.240;27.880;2023-03-31T04:57:47;99993.44;;;9.09;46.04
56270;BME280;42176;43.240;27.880;2023-03-31T05:00:13;99983.09;;;9.43;44.80
56270;BME280;42176;43.240;27.880;2023-03-31T05:02:40;99977.22;;;10.12;44.29
56270;BME280;42176;43.240;27.880;2023-03-31T05:05:05;99985.78;;;9.86;43.82
56270;BME280;42176;43.240;27.880;2023-03-31T05:07:31;99974.56;;;10.14;42.92
56270;BME280;42176;43.240;27.880;2023-03-31T05:09:56;99967.25;;;9.84;43.79
56270;BME280;42176;43.240;27.880;2023-03-31T05:12:22;99971.22;;;9.65;46.00
56270;BME280;42176;43.240;27.880;2023-03-31T05:14:47;99961.00;;;9.46;45.42
56270;BME280;42176;43.240;27.880;2023-03-31T05:17:13;99950.75;;;9.31;47.06
56270;BME280;42176;43.240;27.880;2023-03-31T05:19:38;99958.06;;;9.16;45.70
56270;BME280;42176;43.240;27.880;2023-03-31T05:22:04;99944.09;;;9.08;45.09
56270;BME280;42176;43.240;27.880;2023-03-31T05:24:30;99946.75;;;9.09;46.29
56270;BME280;42176;43.240;27.880;2023-03-31T05:26:55;99949.34;;;9.11;45.32
56270;BME280;42176;43.240;27.880;2023-03-31T05:29:23;99953.72;;;9.12;47.56
56270;BME280;42176;43.240;27.880;2023-03-31T05:31:48;99944.06;;;9.11;47.14
56270;BME280;42176;43.240;27.880;2023-03-31T05:34:14;99946.66;;;9.12;47.15
56270;BME280;42176;43.240;27.880;2023-03-31T05:36:41;99937.72;;;9.20;48.68
56270;BME280;42176;43.240;27.880;2023-03-31T05:39:07;99936.72;;;9.25;47.43
56270;BME280;42176;43.240;27.880;2023-03-31T05:41:33;99929.63;;;9.27;48.88
56270;BME280;42176;43.240;27.880;2023-03-31T05:43:59;99943.56;;;9.36;47.08
56270;BME280;42176;43.240;27.880;2023-03-31T05:46:26;99938.81;;;9.53;46.73
56270;BME280;42176;43.240;27.880;2023-03-31T05:48:52;99937.72;;;9.64;45.84
56270;BME280;42176;43.240;27.880;2023-03-31T05:51:17;99939.47;;;9.63;46.21
56270;BME280;42176;43.240;27.880;2023-03-31T05:53:43;99937.44;;;9.76;45.23
56270;BME280;42176;43.240;27.880;2023-03-31T05:56:08;99942.47;;;9.88;44.86
56270;BME280;42176;43.240;27.880;2023-03-31T05:58:35;99934.94;;;10.09;45.20
56270;BME280;42176;43.240;27.880;2023-03-31T06:03:34;99940.91;;;10.57;46.08
56270;BME280;42176;43.240;27.880;2023-03-31T06:06:00;99932.44;;;10.42;48.42
56270;BME280;42176;43.240;27.880;2023-03-31T06:08:27;99934.06;;;10.46;49.06
56270;BME280;42176;43.240;27.880;2023-03-31T06:10:53;99939.91;;;10.61;48.95
56270;BME280;42176;43.240;27.880;2023-03-31T06:13:18;99940.59;;;10.69;49.41
56270;BME280;42176;43.240;27.880;2023-03-31T06:15:55;99938.59;;;10.77;49.09
56270;BME280;42176;43.240;27.880;2023-03-31T06:18:20;99939.44;;;10.79;48.39
56270;BME280;42176;43.240;27.880;2023-03-31T06:20:46;99929.81;;;10.75;47.49
56270;BME280;42176;43.240;27.880;2023-03-31T06:23:11;99929.88;;;10.74;47.35
56270;BME280;42176;43.240;27.880;2023-03-31T06:25:37;99923.34;;;10.53;45.34
56270;BME280;42176;43.240;27.880;2023-03-31T06:28:03;99916.66;;;10.36;44.69
56270;BME280;42176;43.240;27.880;2023-03-31T06:30:30;99925.50;;;10.35;44.02
56270;BME280;42176;43.240;27.880;2023-03-31T06:32:56;99922.25;;;10.24;43.60
56270;BME280;42176;43.240;27.880;2023-03-31T06:35:21;99925.81;;;10.23;43.57
56270;BME280;42176;43.240;27.880;2023-03-31T06:37:46;99926.00;;;10.13;43.41
56270;BME280;42176;43.240;27.880;2023-03-31T06:40:12;99924.19;;;10.17;42.93
56270;BME280;42176;43.240;27.880;2023-03-31T06:42:38;99917.25;;;10.11;42.86
56270;BME280;42176;43.240;27.880;2023-03-31T06:45:03;99919.13;;;10.06;43.14
56270;BME280;42176;43.240;27.880;2023-03-31T06:47:28;99912.50;;;9.86;43.88
56270;BME280;42176;43.240;27.880;2023-03-31T06:49:54;99921.16;;;9.95;43.89
56270;BME280;42176;43.240;27.880;2023-03-31T06:52:19;99916.72;;;9.95;43.98
56270;BME280;42176;43.240;27.880;2023-03-31T06:54:45;99917.66;;;9.93;43.75
56270;BME280;42176;43.240;27.880;2023-03-31T06:57:11;99920.16;;;9.99;43.92
56270;BME280;42176;43.240;27.880;2023-03-31T06:59:37;99921.28;;;9.88;43.87
56270;BME280;42176;43.240;27.880;2023-03-31T07:02:03;99923.97;;;9.87;44.36
56270;BME280;42176;43.240;27.880;2023-03-31T07:04:28;99929.28;;;9.87;44.36
56270;BME280;42176;43.240;27.880;2023-03-31T07:06:54;99929.84;;;10.00;44.24
56270;BME280;42176;43.240;27.880;2023-03-31T07:09:19;99928.66;;;10.13;43.80
56270;BME280;42176;43.240;27.880;2023-03-31T07:11:48;99927.03;;;10.08;43.82
56270;BME280;42176;43.240;27.880;2023-03-31T07:14:13;99929.28;;;10.25;43.97
56270;BME280;42176;43.240;27.880;2023-03-31T07:16:39;99932.69;;;10.30;43.52
56270;BME280;42176;43.240;27.880;2023-03-31T07:19:06;99921.94;;;10.36;43.53
56270;BME280;42176;43.240;27.880;2023-03-31T07:21:32;99920.00;;;10.44;43.50
56270;BME280;42176;43.240;27.880;2023-03-31T07:23:58;99920.00;;;10.44;43.68
56270;BME280;42176;43.240;27.880;2023-03-31T07:26:24;99902.06;;;10.56;43.21
56270;BME280;42176;43.240;27.880;2023-03-31T07:28:51;99905.00;;;10.43;43.71
56270;BME280;42176;43.240;27.880;2023-03-31T07:31:17;99902.41;;;10.42;44.00
56270;BME280;42176;43.240;27.880;2023-03-31T07:33:42;99898.00;;;10.41;43.84
56270;BME280;42176;43.240;27.880;2023-03-31T07:36:08;99910.03;;;10.16;43.75
56270;BME280;42176;43.240;27.880;2023-03-31T07:38:34;99906.66;;;9.72;44.82
56270;BME280;42176;43.240;27.880;2023-03-31T07:41:00;99908.16;;;8.46;47.99
56270;BME280;42176;43.240;27.880;2023-03-31T07:43:25;99916.88;;;8.54;48.56
56270;BME280;42176;43.240;27.880;2023-03-31T07:45:51;99916.63;;;8.70;48.27
56270;BME280;42176;43.240;27.880;2023-03-31T07:48:16;99907.09;;;9.08;47.64
56270;BME280;42176;43.240;27.880;2023-03-31T07:50:42;99899.00;;;9.17;46.81
56270;BME280;42176;43.240;27.880;2023-03-31T07:53:07;99903.44;;;9.15;47.53
56270;BME280;42176;43.240;27.880;2023-03-31T07:55:33;99899.56;;;9.32;47.47
56270;BME280;42176;43.240;27.880;2023-03-31T07:57:59;99899.03;;;9.56;46.85
56270;BME280;42176;43.240;27.880;2023-03-31T08:00:24;99898.66;;;9.75;46.41
56270;BME280;42176;43.240;27.880;2023-03-31T08:02:49;99905.41;;;9.88;46.93
56270;BME280;42176;43.240;27.880;2023-03-31T08:05:17;99906.72;;;10.08;46.33
56270;BME280;42176;43.240;27.880;2023-03-31T08:07:45;99904.38;;;9.96;46.49
56270;BME280;42176;43.240;27.880;2023-03-31T08:10:25;99903.94;;;9.75;47.61
56270;BME280;42176;43.240;27.880;2023-03-31T08:12:51;99901.41;;;9.69;48.90
56270;BME280;42176;43.240;27.880;2023-03-31T08:15:17;99908.84;;;9.53;50.07
56270;BME280;42176;43.240;27.880;2023-03-31T08:17:43;99904.13;;;9.66;50.54
56270;BME280;42176;43.240;27.880;2023-03-31T08:20:09;99899.38;;;9.82;51.41
56270;BME280;42176;43.240;27.880;2023-03-31T08:22:39;99905.75;;;9.73;52.30
56270;BME280;42176;43.240;27.880;2023-03-31T08:25:05;99906.94;;;9.58;53.44
56270;BME280;42176;43.240;27.880;2023-03-31T08:27:36;99892.22;;;9.44;55.24
56270;BME280;42176;43.240;27.880;2023-03-31T08:30:03;99892.66;;;9.24;56.57
56270;BME280;42176;43.240;27.880;2023-03-31T08:32:32;99894.34;;;9.28;57.24
56270;BME280;42176;43.240;27.880;2023-03-31T08:34:58;99890.78;;;8.86;60.45
56270;BME280;42176;43.240;27.880;2023-03-31T08:37:25;99898.03;;;8.74;64.07
56270;BME280;42176;43.240;27.880;2023-03-31T08:39:53;99869.34;;;8.54;65.33
56270;BME280;42176;43.240;27.880;2023-03-31T08:47:28;99872.75;;;8.59;70.24
56270;BME280;42176;43.240;27.880;2023-03-31T08:50:02;99874.53;;;8.57;71.73
56270;BME280;42176;43.240;27.880;2023-03-31T08:52:36;99869.09;;;8.66;72.16
56270;BME280;42176;43.240;27.880;2023-03-31T08:55:11;99872.25;;;8.87;70.13
56270;BME280;42176;43.240;27.880;2023-03-31T08:57:59;99863.63;;;8.76;73.37
56270;BME280;42176;43.240;27.880;2023-03-31T09:00:31;99878.81;;;8.64;75.92
56270;BME280;42176;43.240;27.880;2023-03-31T09:03:02;99876.00;;;8.75;79.16
56270;BME280;42176;43.240;27.880;2023-03-31T09:05:38;99872.91;;;8.97;80.86
56270;BME280;42176;43.240;27.880;2023-03-31T09:11:02;99857.06;;;8.97;81.26
56270;BME280;42176;43.240;27.880;2023-03-31T09:16:13;99859.31;;;9.17;83.95
56270;BME280;42176;43.240;27.880;2023-03-31T09:18:40;99844.78;;;9.37;77.81
56270;BME280;42176;43.240;27.880;2023-03-31T09:24:28;99860.34;;;9.10;82.37
56270;BME280;42176;43.240;27.880;2023-03-31T09:26:43;99861.03;;;9.20;84.73
56270;BME280;42176;43.240;27.880;2023-03-31T09:29:41;99853.78;;;9.29;86.03
56270;BME280;42176;43.240;27.880;2023-03-31T09:32:20;99846.84;;;9.22;87.61
56270;BME280;42176;43.240;27.880;2023-03-31T09:34:51;99830.59;;;8.98;89.88
56270;BME280;42176;43.240;27.880;2023-03-31T09:37:17;99843.69;;;9.05;93.86
56270;BME280;42176;43.240;27.880;2023-03-31T09:39:42;99846.16;;;9.14;96.22
56270;BME280;42176;43.240;27.880;2023-03-31T09:42:12;99826.63;;;9.20;96.78
56270;BME280;42176;43.240;27.880;2023-03-31T09:44:40;99828.44;;;9.18;98.27
56270;BME280;42176;43.240;27.880;2023-03-31T09:47:15;99829.13;;;9.27;99.22
56270;BME280;42176;43.240;27.880;2023-03-31T09:49:45;99826.13;;;9.43;97.93
56270;BME280;42176;43.240;27.880;2023-03-31T09:52:27;99830.81;;;9.32;95.97
56270;BME280;42176;43.240;27.880;2023-03-31T09:54:58;99823.97;;;8.27;100.00
56270;BME280;42176;43.240;27.880;2023-03-31T09:57:34;99833.44;;;8.39;100.00
56270;BME280;42176;43.240;27.880;2023-03-31T10:00:13;99826.22;;;8.52;100.00
56270;BME280;42176;43.240;27.880;2023-03-31T10:02:49;99823.44;;;8.58;100.00
56270;BME280;42176;43.240;27.880;2023-03-31T10:05:31;99814.91;;;8.42;100.00
56270;BME280;42176;43.240;27.880;2023-03-31T10:08:32;99822.19;;;8.29;100.00
56270;BME280;42176;43.240;27.880;2023-03-31T10:11:05;99819.38;;;8.38;100.00
56270;BME280;42176;43.240;27.880;2023-03-31T10:19:18;99793.97;;;8.33;100.00
56270;BME280;42176;43.240;27.880;2023-03-31T10:21:47;99800.09;;;8.33;100.00
56270;BME280;42176;43.240;27.880;2023-03-31T10:24:19;99798.13;;;8.45;100.00
56270;BME280;42176;43.240;27.880;2023-03-31T10:26:49;99793.41;;;8.64;100.00
56270;BME280;42176;43.240;27.880;2023-03-31T10:29:20;99775.25;;;8.44;100.00
56270;BME280;42176;43.240;27.880;2023-03-31T10:31:50;99768.75;;;8.15;100.00
56270;BME280;42176;43.240;27.880;2023-03-31T10:34:16;99764.25;;;8.20;100.00
56270;BME280;42176;43.240;27.880;2023-03-31T10:36:47;99775.25;;;8.44;100.00
56270;BME280;42176;43.240;27.880;2023-03-31T10:39:15;99774.78;;;8.72;100.00
56270;BME280;42176;43.240;27.880;2023-03-31T10:41:41;99762.28;;;8.78;100.00
56270;BME280;42176;43.240;27.880;2023-03-31T10:44:36;99753.53;;;8.76;100.00
56270;BME280;42176;43.240;27.880;2023-03-31T10:47:19;99757.28;;;9.07;100.00
56270;BME280;42176;43.240;27.880;2023-03-31T10:49:49;99747.75;;;9.39;100.00
56270;BME280;42176;43.240;27.880;2023-03-31T10:52:20;99739.97;;;9.69;100.00
56270;BME280;42176;43.240;27.880;2023-03-31T10:54:59;99726.84;;;9.99;100.00
56270;BME280;42176;43.240;27.880;2023-03-31T10:57:53;99732.91;;;10.37;100.00
56270;BME280;42176;43.240;27.880;2023-03-31T11:22:12;99687.16;;;12.02;82.54
56270;BME280;42176;43.240;27.880;2023-03-31T11:24:47;99682.34;;;12.14;80.67
56270;BME280;42176;43.240;27.880;2023-03-31T11:30:21;99678.44;;;12.48;78.32
56270;BME280;42176;43.240;27.880;2023-03-31T11:38:32;99680.41;;;12.43;79.69
56270;BME280;42176;43.240;27.880;2023-03-31T11:41:27;99673.81;;;12.29;77.74
56270;BME280;42176;43.240;27.880;2023-03-31T11:43:59;99667.56;;;12.30;79.27
56270;BME280;42176;43.240;27.880;2023-03-31T11:51:58;99661.84;;;12.41;78.63
56270;BME280;42176;43.240;27.880;2023-03-31T11:54:36;99650.00;;;12.50;79.48
56270;BME280;42176;43.240;27.880;2023-03-31T11:57:13;99644.19;;;12.64;78.19
56270;BME280;42176;43.240;27.880;2023-03-31T11:59:42;99633.00;;;12.78;76.62
56270;BME280;42176;43.240;27.880;2023-03-31T12:02:18;99645.03;;;13.10;75.94
56270;BME280;42176;43.240;27.880;2023-03-31T12:04:51;99643.50;;;13.25;76.05
56270;BME280;42176;43.240;27.880;2023-03-31T12:07:28;99639.44;;;13.39;75.79
56270;BME280;42176;43.240;27.880;2023-03-31T12:10:12;99634.28;;;13.57;76.56
56270;BME280;42176;43.240;27.880;2023-03-31T12:12:52;99626.69;;;13.47;76.31
56270;BME280;42176;43.240;27.880;2023-03-31T12:15:37;99615.13;;;13.48;76.43
56270;BME280;42176;43.240;27.880;2023-03-31T12:18:15;99617.53;;;13.54;75.86
56270;BME280;42176;43.240;27.880;2023-03-31T12:20:51;99613.78;;;13.59;76.16
56270;BME280;42176;43.240;27.880;2023-03-31T12:23:21;99616.00;;;13.69;75.42
56270;BME280;42176;43.240;27.880;2023-03-31T12:25:56;99612.53;;;13.67;74.09
56270;BME280;42176;43.240;27.880;2023-03-31T12:28:25;99611.94;;;13.61;74.41
56270;BME280;42176;43.240;27.880;2023-03-31T12:30:53;99607.97;;;13.49;74.98
56270;BME280;42176;43.240;27.880;2023-03-31T12:33:32;99610.88;;;13.00;75.69
56270;BME280;42176;43.240;27.880;2023-03-31T12:47:07;99588.81;;;11.79;89.64
56270;BME280;42176;43.240;27.880;2023-03-31T12:55:48;99591.53;;;12.50;87.09
56270;BME280;42176;43.240;27.880;2023-03-31T13:16:45;99550.81;;;13.78;78.61
56270;BME280;42176;43.240;27.880;2023-03-31T13:19:27;99554.00;;;13.66;80.85
56270;BME280;42176;43.240;27.880;2023-03-31T13:21:56;99551.66;;;13.79;79.42
56270;BME280;42176;43.240;27.880;2023-03-31T13:24:24;99544.91;;;13.91;79.44
56270;BME280;42176;43.240;27.880;2023-03-31T13:26:51;99548.97;;;13.99;79.41
56270;BME280;42176;43.240;27.880;2023-03-31T13:29:40;99541.63;;;14.05;78.27
56270;BME280;42176;43.240;27.880;2023-03-31T13:32:18;99501.56;;;13.87;79.32
56270;BME280;42176;43.240;27.880;2023-03-31T13:34:53;99527.50;;;14.03;79.05
56270;BME280;42176;43.240;27.880;2023-03-31T13:38:02;99526.78;;;13.99;78.37
56270;BME280;42176;43.240;27.880;2023-03-31T13:53:26;99529.53;;;14.16;79.46
56270;BME280;42176;43.240;27.880;2023-03-31T13:56:17;99525.88;;;14.19;79.36
56270;BME280;42176;43.240;27.880;2023-03-31T14:04:55;99517.19;;;13.95;81.12
56270;BME280;42176;43.240;27.880;2023-03-31T14:07:07;99519.16;;;14.10;82.00
56270;BME280;42176;43.240;27.880;2023-03-31T14:09:35;99509.66;;;14.24;81.07
56270;BME280;42176;43.240;27.880;2023-03-31T14:12:25;99510.06;;;14.34;83.25
56270;BME280;42176;43.240;27.880;2023-03-31T14:14:53;99507.63;;;14.29;85.33
56270;BME280;42176;43.240;27.880;2023-03-31T14:17:21;99511.25;;;14.28;84.84
56270;BME280;42176;43.240;27.880;2023-03-31T14:31:11;99509.00;;;14.19;81.71
56270;BME280;42176;43.240;27.880;2023-03-31T14:39:24;99496.84;;;14.32;81.26
56270;BME280;42176;43.240;27.880;2023-03-31T14:41:53;99498.47;;;14.35;81.89
56270;BME280;42176;43.240;27.880;2023-03-31T14:44:19;99500.56;;;14.28;80.21
56270;BME280;42176;43.240;27.880;2023-03-31T14:46:46;99487.75;;;14.17;80.34
56270;BME280;42176;43.240;27.880;2023-03-31T14:49:24;99495.53;;;14.22;81.10
56270;BME280;42176;43.240;27.880;2023-03-31T14:51:52;99496.38;;;14.03;82.73
56270;BME280;42176;43.240;27.880;2023-03-31T14:54:19;99494.06;;;13.95;82.28
56270;BME280;42176;43.240;27.880;2023-03-31T14:56:47;99495.53;;;13.83;82.69
56270;BME280;42176;43.240;27.880;2023-03-31T14:59:35;99493.94;;;13.79;81.97
56270;BME280;42176;43.240;27.880;2023-03-31T15:02:03;99501.13;;;13.77;81.02
56270;BME280;42176;43.240;27.880;2023-03-31T15:04:34;99502.97;;;13.75;80.55
56270;BME280;42176;43.240;27.880;2023-03-31T15:07:03;99499.53;;;13.73;81.34
56270;BME280;42176;43.240;27.880;2023-03-31T15:09:32;99492.88;;;13.63;81.83
56270;BME280;42176;43.240;27.880;2023-03-31T15:12:03;99490.00;;;13.67;81.53
56270;BME280;42176;43.240;27.880;2023-03-31T15:14:34;99475.44;;;13.55;80.71
56270;BME280;42176;43.240;27.880;2023-03-31T15:17:00;99487.44;;;13.66;80.28
56270;BME280;42176;43.240;27.880;2023-03-31T15:19:33;99492.75;;;13.66;81.08
56270;BME280;42176;43.240;27.880;2023-03-31T15:22:00;99496.22;;;13.68;81.46
56270;BME280;42176;43.240;27.880;2023-03-31T15:24:27;99489.03;;;13.70;81.10
56270;BME280;42176;43.240;27.880;2023-03-31T15:29:46;99481.66;;;13.75;79.87
56270;BME280;42176;43.240;27.880;2023-03-31T15:32:24;99483.28;;;13.79;80.13
56270;BME280;42176;43.240;27.880;2023-03-31T15:34:51;99476.22;;;13.78;78.78
56270;BME280;42176;43.240;27.880;2023-03-31T15:37:26;99477.16;;;13.77;77.78
56270;BME280;42176;43.240;27.880;2023-03-31T15:39:55;99476.22;;;13.78;77.41
56270;BME280;42176;43.240;27.880;2023-03-31T15:42:23;99470.09;;;13.76;76.40
56270;BME280;42176;43.240;27.880;2023-03-31T15:47:27;99463.88;;;13.15;79.01
56270;BME280;42176;43.240;27.880;2023-03-31T15:52:37;99469.69;;;12.82;82.52
56270;BME280;42176;43.240;27.880;2023-03-31T15:57:51;99455.66;;;12.36;84.87
56270;BME280;42176;43.240;27.880;2023-03-31T16:03:12;99466.03;;;12.42;86.03
56270;BME280;42176;43.240;27.880;2023-03-31T16:11:01;99457.63;;;12.53;85.05
56270;BME280;42176;43.240;27.880;2023-03-31T16:13:29;99463.81;;;12.53;85.33
56270;BME280;42176;43.240;27.880;2023-03-31T16:15:57;99464.66;;;12.54;85.63
56270;BME280;42176;43.240;27.880;2023-03-31T16:18:31;99477.63;;;12.61;86.09
56270;BME280;42176;43.240;27.880;2023-03-31T16:21:00;99469.72;;;12.60;86.28